sensor_id;sensor_type;location;lat;lon;timestamp;P1;durP1;ratioP1;P2;durP2;ratioP2
47539;SDS011;33280;52.152;21.052;2022-10-17T00:00:48;28.07;;;16.23;;
47539;SDS011;33280;52.152;21.052;2022-10-17T00:03:15;27.50;;;16.83;;
47539;SDS011;33280;52.152;21.052;2022-10-17T00:05:43;27.53;;;16.73;;
47539;SDS011;33280;52.152;21.052;2022-10-17T00:08:11;27.60;;;16.73;;
47539;SDS011;33280;52.152;21.052;2022-10-17T00:10:41;26.73;;;16.77;;
47539;SDS011;33280;52.152;21.052;2022-10-17T00:13:09;27.23;;;16.03;;
47539;SDS011;33280;52.152;21.052;2022-10-17T00:15:37;26.13;;;16.47;;
47539;SDS011;33280;52.152;21.052;2022-10-17T00:18:04;25.27;;;16.07;;
47539;SDS011;33280;52.152;21.052;2022-10-17T00:20:33;26.30;;;16.80;;
47539;SDS011;33280;52.152;21.052;2022-10-17T00:23:00;28.07;;;17.10;;
47539;SDS011;33280;52.152;21.052;2022-10-17T00:25:28;26.07;;;16.20;;
47539;SDS011;33280;52.152;21.052;2022-10-17T00:27:55;30.07;;;17.57;;
47539;SDS011;33280;52.152;21.052;2022-10-17T00:30:22;28.50;;;16.77;;
47539;SDS011;33280;52.152;21.052;2022-10-17T00:32:49;26.73;;;16.33;;
47539;SDS011;33280;52.152;21.052;2022-10-17T00:35:16;27.17;;;16.37;;
47539;SDS011;33280;52.152;21.052;2022-10-17T00:37:43;27.47;;;16.90;;
47539;SDS011;33280;52.152;21.052;2022-10-17T00:40:09;31.07;;;18.27;;
47539;SDS011;33280;52.152;21.052;2022-10-17T00:42:37;27.67;;;17.17;;
47539;SDS011;33280;52.152;21.052;2022-10-17T00:45:15;30.97;;;17.37;;
47539;SDS011;33280;52.152;21.052;2022-10-17T00:47:48;28.00;;;17.00;;
47539;SDS011;33280;52.152;21.052;2022-10-17T00:50:21;28.37;;;16.80;;
47539;SDS011;33280;52.152;21.052;2022-10-17T00:52:49;28.67;;;17.40;;
47539;SDS011;33280;52.152;21.052;2022-10-17T00:55:25;28.77;;;17.03;;
47539;SDS011;33280;52.152;21.052;2022-10-17T00:57:56;28.77;;;17.33;;
47539;SDS011;33280;52.152;21.052;2022-10-17T01:00:25;25.87;;;17.10;;
47539;SDS011;33280;52.152;21.052;2022-10-17T01:02:52;28.57;;;17.70;;
47539;SDS011;33280;52.152;21.052;2022-10-17T01:05:19;29.60;;;17.07;;
47539;SDS011;33280;52.152;21.052;2022-10-17T01:07:46;28.90;;;16.67;;
47539;SDS011;33280;52.152;21.052;2022-10-17T01:10:16;26.40;;;17.20;;
47539;SDS011;33280;52.152;21.052;2022-10-17T01:13:05;28.73;;;17.17;;
47539;SDS011;33280;52.152;21.052;2022-10-17T01:15:48;30.00;;;17.67;;
47539;SDS011;33280;52.152;21.052;2022-10-17T01:18:57;29.50;;;17.57;;
47539;SDS011;33280;52.152;21.052;2022-10-17T01:24:32;28.83;;;17.93;;
47539;SDS011;33280;52.152;21.052;2022-10-17T01:27:21;30.83;;;17.77;;
47539;SDS011;33280;52.152;21.052;2022-10-17T01:32:48;27.83;;;17.70;;
47539;SDS011;33280;52.152;21.052;2022-10-17T01:38:35;30.27;;;18.13;;
47539;SDS011;33280;52.152;21.052;2022-10-17T01:41:15;30.37;;;17.40;;
47539;SDS011;33280;52.152;21.052;2022-10-17T01:44:11;29.87;;;17.80;;
47539;SDS011;33280;52.152;21.052;2022-10-17T01:46:49;29.57;;;18.20;;
47539;SDS011;33280;52.152;21.052;2022-10-17T01:49:22;29.53;;;17.60;;
47539;SDS011;33280;52.152;21.052;2022-10-17T01:51:54;30.23;;;17.67;;
47539;SDS011;33280;52.152;21.052;2022-10-17T01:57:21;26.60;;;16.97;;
47539;SDS011;33280;52.152;21.052;2022-10-17T01:59:50;31.37;;;17.77;;
47539;SDS011;33280;52.152;21.052;2022-10-17T02:02:23;28.93;;;17.53;;
47539;SDS011;33280;52.152;21.052;2022-10-17T02:04:51;29.47;;;17.73;;
47539;SDS011;33280;52.152;21.052;2022-10-17T02:07:20;27.03;;;16.97;;
47539;SDS011;33280;52.152;21.052;2022-10-17T02:09:47;25.70;;;16.10;;
47539;SDS011;33280;52.152;21.052;2022-10-17T02:14:57;26.30;;;16.43;;
47539;SDS011;33280;52.152;21.052;2022-10-17T02:17:48;27.53;;;16.47;;
47539;SDS011;33280;52.152;21.052;2022-10-17T02:26:25;27.60;;;17.03;;
47539;SDS011;33280;52.152;21.052;2022-10-17T02:31:46;27.17;;;16.23;;
47539;SDS011;33280;52.152;21.052;2022-10-17T02:34:18;27.10;;;15.57;;
47539;SDS011;33280;52.152;21.052;2022-10-17T02:37:16;25.53;;;15.90;;
47539;SDS011;33280;52.152;21.052;2022-10-17T02:39:48;28.17;;;16.57;;
47539;SDS011;33280;52.152;21.052;2022-10-17T02:42:16;27.17;;;15.93;;
47539;SDS011;33280;52.152;21.052;2022-10-17T02:44:45;25.60;;;15.97;;
47539;SDS011;33280;52.152;21.052;2022-10-17T02:47:17;25.70;;;16.30;;
47539;SDS011;33280;52.152;21.052;2022-10-17T02:49:58;28.67;;;15.57;;
47539;SDS011;33280;52.152;21.052;2022-10-17T02:52:33;24.67;;;15.77;;
47539;SDS011;33280;52.152;21.052;2022-10-17T02:55:05;24.60;;;15.47;;
47539;SDS011;33280;52.152;21.052;2022-10-17T02:57:51;27.20;;;15.67;;
47539;SDS011;33280;52.152;21.052;2022-10-17T03:00:22;29.17;;;16.73;;
47539;SDS011;33280;52.152;21.052;2022-10-17T03:02:51;30.67;;;16.80;;
47539;SDS011;33280;52.152;21.052;2022-10-17T03:05:27;25.47;;;15.73;;
47539;SDS011;33280;52.152;21.052;2022-10-17T03:07:55;25.67;;;16.77;;
47539;SDS011;33280;52.152;21.052;2022-10-17T03:10:22;27.73;;;16.50;;
47539;SDS011;33280;52.152;21.052;2022-10-17T03:12:49;30.37;;;18.73;;
47539;SDS011;33280;52.152;21.052;2022-10-17T03:15:16;30.93;;;17.50;;
47539;SDS011;33280;52.152;21.052;2022-10-17T03:17:43;29.60;;;18.37;;
47539;SDS011;33280;52.152;21.052;2022-10-17T03:20:10;26.30;;;16.87;;
47539;SDS011;33280;52.152;21.052;2022-10-17T03:22:37;29.17;;;16.80;;
47539;SDS011;33280;52.152;21.052;2022-10-17T03:25:04;30.33;;;17.57;;
47539;SDS011;33280;52.152;21.052;2022-10-17T03:27:31;29.47;;;18.20;;
47539;SDS011;33280;52.152;21.052;2022-10-17T03:29:58;26.20;;;16.90;;
47539;SDS011;33280;52.152;21.052;2022-10-17T03:32:25;30.40;;;17.90;;
47539;SDS011;33280;52.152;21.052;2022-10-17T03:34:52;30.30;;;17.87;;
47539;SDS011;33280;52.152;21.052;2022-10-17T03:37:19;30.67;;;18.57;;
47539;SDS011;33280;52.152;21.052;2022-10-17T03:39:46;33.60;;;19.70;;
47539;SDS011;33280;52.152;21.052;2022-10-17T03:42:13;31.80;;;19.10;;
47539;SDS011;33280;52.152;21.052;2022-10-17T03:44:40;34.50;;;19.60;;
47539;SDS011;33280;52.152;21.052;2022-10-17T03:47:07;33.43;;;19.60;;
47539;SDS011;33280;52.152;21.052;2022-10-17T03:49:39;30.33;;;18.47;;
47539;SDS011;33280;52.152;21.052;2022-10-17T03:52:09;31.43;;;19.07;;
47539;SDS011;33280;52.152;21.052;2022-10-17T03:54:37;35.07;;;18.93;;
47539;SDS011;33280;52.152;21.052;2022-10-17T03:57:04;29.87;;;18.63;;
47539;SDS011;33280;52.152;21.052;2022-10-17T03:59:31;32.10;;;18.37;;
47539;SDS011;33280;52.152;21.052;2022-10-17T04:01:58;32.20;;;19.87;;
47539;SDS011;33280;52.152;21.052;2022-10-17T04:04:25;30.70;;;18.77;;
47539;SDS011;33280;52.152;21.052;2022-10-17T04:06:52;32.53;;;19.47;;
47539;SDS011;33280;52.152;21.052;2022-10-17T04:09:19;32.63;;;20.53;;
47539;SDS011;33280;52.152;21.052;2022-10-17T04:11:45;32.23;;;19.63;;
47539;SDS011;33280;52.152;21.052;2022-10-17T04:14:12;35.23;;;20.67;;
47539;SDS011;33280;52.152;21.052;2022-10-17T04:16:39;31.20;;;19.43;;
47539;SDS011;33280;52.152;21.052;2022-10-17T04:19:06;31.77;;;19.33;;
47539;SDS011;33280;52.152;21.052;2022-10-17T04:21:33;31.63;;;18.73;;
47539;SDS011;33280;52.152;21.052;2022-10-17T04:24:00;30.80;;;19.23;;
47539;SDS011;33280;52.152;21.052;2022-10-17T04:26:26;31.27;;;18.70;;
47539;SDS011;33280;52.152;21.052;2022-10-17T04:28:53;29.43;;;18.73;;
47539;SDS011;33280;52.152;21.052;2022-10-17T04:31:20;27.50;;;18.50;;
47539;SDS011;33280;52.152;21.052;2022-10-17T04:33:48;27.93;;;17.63;;
47539;SDS011;33280;52.152;21.052;2022-10-17T04:36:16;29.47;;;18.00;;
47539;SDS011;33280;52.152;21.052;2022-10-17T04:38:44;29.90;;;17.23;;
47539;SDS011;33280;52.152;21.052;2022-10-17T04:41:13;31.10;;;17.97;;
47539;SDS011;33280;52.152;21.052;2022-10-17T04:43:41;29.60;;;18.50;;
47539;SDS011;33280;52.152;21.052;2022-10-17T04:46:14;32.17;;;18.57;;
47539;SDS011;33280;52.152;21.052;2022-10-17T04:48:41;32.83;;;19.00;;
47539;SDS011;33280;52.152;21.052;2022-10-17T04:51:12;31.90;;;18.17;;
47539;SDS011;33280;52.152;21.052;2022-10-17T04:53:41;34.10;;;20.43;;
47539;SDS011;33280;52.152;21.052;2022-10-17T04:58:43;31.07;;;19.37;;
47539;SDS011;33280;52.152;21.052;2022-10-17T05:01:11;33.17;;;20.67;;
47539;SDS011;33280;52.152;21.052;2022-10-17T05:03:40;30.10;;;18.50;;
47539;SDS011;33280;52.152;21.052;2022-10-17T05:06:08;33.33;;;20.33;;
47539;SDS011;33280;52.152;21.052;2022-10-17T05:08:37;37.60;;;20.50;;
47539;SDS011;33280;52.152;21.052;2022-10-17T05:11:04;36.23;;;21.60;;
47539;SDS011;33280;52.152;21.052;2022-10-17T05:13:40;39.33;;;21.57;;
47539;SDS011;33280;52.152;21.052;2022-10-17T05:16:06;37.53;;;22.53;;
47539;SDS011;33280;52.152;21.052;2022-10-17T05:18:33;37.17;;;22.17;;
47539;SDS011;33280;52.152;21.052;2022-10-17T05:21:01;39.17;;;21.93;;
47539;SDS011;33280;52.152;21.052;2022-10-17T05:23:29;37.83;;;21.67;;
47539;SDS011;33280;52.152;21.052;2022-10-17T05:25:56;37.67;;;22.20;;
47539;SDS011;33280;52.152;21.052;2022-10-17T05:28:23;36.90;;;22.67;;
47539;SDS011;33280;52.152;21.052;2022-10-17T05:30:50;41.67;;;23.90;;
47539;SDS011;33280;52.152;21.052;2022-10-17T05:33:17;37.40;;;22.83;;
47539;SDS011;33280;52.152;21.052;2022-10-17T05:35:44;37.37;;;21.77;;
47539;SDS011;33280;52.152;21.052;2022-10-17T05:38:11;38.53;;;22.33;;
47539;SDS011;33280;52.152;21.052;2022-10-17T05:40:37;40.43;;;22.30;;
47539;SDS011;33280;52.152;21.052;2022-10-17T05:43:04;37.67;;;22.50;;
47539;SDS011;33280;52.152;21.052;2022-10-17T05:45:31;40.57;;;23.37;;
47539;SDS011;33280;52.152;21.052;2022-10-17T05:47:58;41.90;;;23.37;;
47539;SDS011;33280;52.152;21.052;2022-10-17T05:50:25;37.60;;;22.10;;
47539;SDS011;33280;52.152;21.052;2022-10-17T05:52:52;37.60;;;22.97;;
47539;SDS011;33280;52.152;21.052;2022-10-17T05:55:20;36.87;;;22.10;;
47539;SDS011;33280;52.152;21.052;2022-10-17T05:57:47;35.97;;;21.43;;
47539;SDS011;33280;52.152;21.052;2022-10-17T06:00:15;40.23;;;21.53;;
47539;SDS011;33280;52.152;21.052;2022-10-17T06:02:42;36.13;;;21.20;;
47539;SDS011;33280;52.152;21.052;2022-10-17T06:05:25;38.83;;;21.40;;
47539;SDS011;33280;52.152;21.052;2022-10-17T06:07:52;33.77;;;20.40;;
47539;SDS011;33280;52.152;21.052;2022-10-17T06:10:26;33.30;;;20.57;;
47539;SDS011;33280;52.152;21.052;2022-10-17T06:12:54;33.40;;;19.40;;
47539;SDS011;33280;52.152;21.052;2022-10-17T06:15:24;34.23;;;20.03;;
47539;SDS011;33280;52.152;21.052;2022-10-17T06:17:51;33.80;;;19.47;;
47539;SDS011;33280;52.152;21.052;2022-10-17T06:20:18;30.40;;;19.23;;
47539;SDS011;33280;52.152;21.052;2022-10-17T06:22:44;32.03;;;19.70;;
47539;SDS011;33280;52.152;21.052;2022-10-17T06:25:12;29.13;;;18.30;;
47539;SDS011;33280;52.152;21.052;2022-10-17T06:27:40;30.17;;;19.27;;
47539;SDS011;33280;52.152;21.052;2022-10-17T06:30:07;31.53;;;18.90;;
47539;SDS011;33280;52.152;21.052;2022-10-17T06:32:40;31.43;;;18.70;;
47539;SDS011;33280;52.152;21.052;2022-10-17T06:35:07;32.93;;;19.63;;
47539;SDS011;33280;52.152;21.052;2022-10-17T06:37:34;30.77;;;18.10;;
47539;SDS011;33280;52.152;21.052;2022-10-17T06:40:03;33.23;;;19.63;;
47539;SDS011;33280;52.152;21.052;2022-10-17T06:42:33;31.27;;;19.33;;
47539;SDS011;33280;52.152;21.052;2022-10-17T06:45:00;32.87;;;19.53;;
47539;SDS011;33280;52.152;21.052;2022-10-17T06:47:26;33.00;;;20.37;;
47539;SDS011;33280;52.152;21.052;2022-10-17T06:49:54;36.10;;;19.23;;
47539;SDS011;33280;52.152;21.052;2022-10-17T06:52:21;37.17;;;20.13;;
47539;SDS011;33280;52.152;21.052;2022-10-17T06:54:48;32.90;;;20.50;;
47539;SDS011;33280;52.152;21.052;2022-10-17T06:57:34;35.70;;;21.17;;
47539;SDS011;33280;52.152;21.052;2022-10-17T07:00:01;31.87;;;19.57;;
47539;SDS011;33280;52.152;21.052;2022-10-17T07:02:28;32.77;;;19.87;;
47539;SDS011;33280;52.152;21.052;2022-10-17T07:04:56;34.90;;;20.17;;
47539;SDS011;33280;52.152;21.052;2022-10-17T07:07:22;33.07;;;20.83;;
47539;SDS011;33280;52.152;21.052;2022-10-17T07:09:50;34.03;;;20.93;;
47539;SDS011;33280;52.152;21.052;2022-10-17T07:12:17;42.83;;;21.27;;
47539;SDS011;33280;52.152;21.052;2022-10-17T07:14:43;35.27;;;21.20;;
47539;SDS011;33280;52.152;21.052;2022-10-17T07:17:12;37.63;;;20.33;;
47539;SDS011;33280;52.152;21.052;2022-10-17T07:19:39;36.17;;;21.13;;
47539;SDS011;33280;52.152;21.052;2022-10-17T07:22:06;34.13;;;19.70;;
47539;SDS011;33280;52.152;21.052;2022-10-17T07:24:33;37.10;;;19.73;;
47539;SDS011;33280;52.152;21.052;2022-10-17T07:27:00;32.57;;;19.80;;
47539;SDS011;33280;52.152;21.052;2022-10-17T07:29:27;30.93;;;19.20;;
47539;SDS011;33280;52.152;21.052;2022-10-17T07:31:54;29.03;;;18.70;;
47539;SDS011;33280;52.152;21.052;2022-10-17T07:34:21;32.17;;;19.23;;
47539;SDS011;33280;52.152;21.052;2022-10-17T07:36:52;32.17;;;18.83;;
47539;SDS011;33280;52.152;21.052;2022-10-17T07:39:19;34.07;;;18.93;;
47539;SDS011;33280;52.152;21.052;2022-10-17T07:41:47;32.57;;;18.57;;
47539;SDS011;33280;52.152;21.052;2022-10-17T07:44:14;30.63;;;19.07;;
47539;SDS011;33280;52.152;21.052;2022-10-17T07:46:41;34.90;;;18.80;;
47539;SDS011;33280;52.152;21.052;2022-10-17T07:49:08;33.30;;;18.37;;
47539;SDS011;33280;52.152;21.052;2022-10-17T07:51:35;32.60;;;18.37;;
47539;SDS011;33280;52.152;21.052;2022-10-17T07:54:03;29.30;;;17.97;;
47539;SDS011;33280;52.152;21.052;2022-10-17T07:56:31;27.90;;;16.80;;
47539;SDS011;33280;52.152;21.052;2022-10-17T07:58:58;28.63;;;16.53;;
47539;SDS011;33280;52.152;21.052;2022-10-17T08:01:30;26.93;;;17.40;;
47539;SDS011;33280;52.152;21.052;2022-10-17T08:03:57;29.63;;;17.50;;
47539;SDS011;33280;52.152;21.052;2022-10-17T08:06:24;30.53;;;17.17;;
47539;SDS011;33280;52.152;21.052;2022-10-17T08:08:51;28.83;;;16.67;;
47539;SDS011;33280;52.152;21.052;2022-10-17T08:11:21;25.37;;;16.20;;
47539;SDS011;33280;52.152;21.052;2022-10-17T08:16:53;22.03;;;15.13;;
47539;SDS011;33280;52.152;21.052;2022-10-17T08:19:20;24.37;;;15.93;;
47539;SDS011;33280;52.152;21.052;2022-10-17T08:21:47;26.90;;;16.03;;
47539;SDS011;33280;52.152;21.052;2022-10-17T08:24:17;26.40;;;15.40;;
47539;SDS011;33280;52.152;21.052;2022-10-17T08:26:44;22.83;;;15.40;;
47539;SDS011;33280;52.152;21.052;2022-10-17T08:29:15;23.60;;;15.27;;
47539;SDS011;33280;52.152;21.052;2022-10-17T08:31:42;26.63;;;15.63;;
47539;SDS011;33280;52.152;21.052;2022-10-17T08:34:19;26.20;;;15.63;;
47539;SDS011;33280;52.152;21.052;2022-10-17T08:36:46;26.27;;;15.70;;
47539;SDS011;33280;52.152;21.052;2022-10-17T08:39:13;24.40;;;15.60;;
47539;SDS011;33280;52.152;21.052;2022-10-17T08:47:22;22.47;;;15.40;;
47539;SDS011;33280;52.152;21.052;2022-10-17T08:53:28;23.73;;;14.70;;
47539;SDS011;33280;52.152;21.052;2022-10-17T08:56:18;23.73;;;14.57;;
47539;SDS011;33280;52.152;21.052;2022-10-17T08:59:28;24.40;;;15.13;;
47539;SDS011;33280;52.152;21.052;2022-10-17T09:04:44;24.80;;;14.57;;
47539;SDS011;33280;52.152;21.052;2022-10-17T09:17:42;25.03;;;14.40;;
47539;SDS011;33280;52.152;21.052;2022-10-17T09:20:39;22.23;;;14.07;;
47539;SDS011;33280;52.152;21.052;2022-10-17T09:26:34;22.73;;;13.73;;
47539;SDS011;33280;52.152;21.052;2022-10-17T09:29:01;22.77;;;14.30;;
47539;SDS011;33280;52.152;21.052;2022-10-17T09:31:39;25.43;;;14.17;;
47539;SDS011;33280;52.152;21.052;2022-10-17T09:34:10;19.67;;;12.83;;
47539;SDS011;33280;52.152;21.052;2022-10-17T09:36:38;20.40;;;13.90;;
47539;SDS011;33280;52.152;21.052;2022-10-17T09:39:11;20.95;;;14.15;;
47539;SDS011;33280;52.152;21.052;2022-10-17T09:44:14;23.90;;;13.38;;
47539;SDS011;33280;52.152;21.052;2022-10-17T09:49:50;22.30;;;13.50;;
47539;SDS011;33280;52.152;21.052;2022-10-17T09:52:18;19.57;;;13.43;;
47539;SDS011;33280;52.152;21.052;2022-10-17T09:57:16;20.80;;;13.20;;
47539;SDS011;33280;52.152;21.052;2022-10-17T10:02:26;19.42;;;13.10;;
47539;SDS011;33280;52.152;21.052;2022-10-17T10:05:02;20.27;;;12.25;;
47539;SDS011;33280;52.152;21.052;2022-10-17T10:08:10;19.40;;;13.02;;
47539;SDS011;33280;52.152;21.052;2022-10-17T10:10:39;18.63;;;12.60;;
47539;SDS011;33280;52.152;21.052;2022-10-17T10:15:44;19.92;;;12.70;;
47539;SDS011;33280;52.152;21.052;2022-10-17T10:23:40;18.27;;;12.30;;
47539;SDS011;33280;52.152;21.052;2022-10-17T10:29:33;17.67;;;12.00;;
47539;SDS011;33280;52.152;21.052;2022-10-17T10:37:40;17.33;;;11.82;;
47539;SDS011;33280;52.152;21.052;2022-10-17T10:43:48;16.10;;;11.30;;
47539;SDS011;33280;52.152;21.052;2022-10-17T10:46:18;16.95;;;11.65;;
47539;SDS011;33280;52.152;21.052;2022-10-17T10:51:41;17.40;;;11.60;;
47539;SDS011;33280;52.152;21.052;2022-10-17T10:56:52;21.02;;;12.50;;
47539;SDS011;33280;52.152;21.052;2022-10-17T10:59:51;17.42;;;11.55;;
47539;SDS011;33280;52.152;21.052;2022-10-17T11:02:44;18.15;;;12.10;;
47539;SDS011;33280;52.152;21.052;2022-10-17T11:10:56;19.58;;;11.30;;
47539;SDS011;33280;52.152;21.052;2022-10-17T11:13:41;16.70;;;12.23;;
47539;SDS011;33280;52.152;21.052;2022-10-17T11:29:38;19.05;;;11.52;;
47539;SDS011;33280;52.152;21.052;2022-10-17T11:34:46;16.38;;;11.45;;
47539;SDS011;33280;52.152;21.052;2022-10-17T11:37:26;16.48;;;11.23;;
47539;SDS011;33280;52.152;21.052;2022-10-17T11:40:13;17.02;;;11.30;;
47539;SDS011;33280;52.152;21.052;2022-10-17T11:43:16;15.82;;;10.70;;
47539;SDS011;33280;52.152;21.052;2022-10-17T11:45:47;16.20;;;11.50;;
47539;SDS011;33280;52.152;21.052;2022-10-17T11:52:13;17.33;;;11.25;;
47539;SDS011;33280;52.152;21.052;2022-10-17T11:55:34;18.13;;;11.23;;
47539;SDS011;33280;52.152;21.052;2022-10-17T12:01:45;17.88;;;11.02;;
47539;SDS011;33280;52.152;21.052;2022-10-17T12:07:45;16.95;;;11.80;;
47539;SDS011;33280;52.152;21.052;2022-10-17T12:10:57;15.65;;;10.30;;
47539;SDS011;33280;52.152;21.052;2022-10-17T12:14:09;18.42;;;10.82;;
47539;SDS011;33280;52.152;21.052;2022-10-17T12:30:50;20.38;;;11.10;;
47539;SDS011;33280;52.152;21.052;2022-10-17T12:34:30;15.40;;;10.57;;
47539;SDS011;33280;52.152;21.052;2022-10-17T13:46:04;19.60;;;11.73;;
47539;SDS011;33280;52.152;21.052;2022-10-17T14:12:23;20.00;;;11.90;;
47539;SDS011;33280;52.152;21.052;2022-10-17T14:28:32;20.20;;;12.40;;
47539;SDS011;33280;52.152;21.052;2022-10-17T14:47:59;18.07;;;11.60;;
47539;SDS011;33280;52.152;21.052;2022-10-17T14:51:26;21.17;;;11.93;;
47539;SDS011;33280;52.152;21.052;2022-10-17T14:57:07;19.30;;;11.97;;
47539;SDS011;33280;52.152;21.052;2022-10-17T14:59:55;18.30;;;11.53;;
47539;SDS011;33280;52.152;21.052;2022-10-17T15:07:43;21.27;;;12.27;;
47539;SDS011;33280;52.152;21.052;2022-10-17T15:10:39;18.10;;;12.03;;
47539;SDS011;33280;52.152;21.052;2022-10-17T15:19:14;18.67;;;12.17;;
47539;SDS011;33280;52.152;21.052;2022-10-17T15:21:59;21.97;;;12.40;;
47539;SDS011;33280;52.152;21.052;2022-10-17T15:26:56;20.63;;;12.33;;
47539;SDS011;33280;52.152;21.052;2022-10-17T15:29:24;25.30;;;12.43;;
47539;SDS011;33280;52.152;21.052;2022-10-17T15:38:14;22.67;;;12.90;;
47539;SDS011;33280;52.152;21.052;2022-10-17T15:41:08;20.83;;;12.60;;
47539;SDS011;33280;52.152;21.052;2022-10-17T15:43:36;19.47;;;12.70;;
47539;SDS011;33280;52.152;21.052;2022-10-17T15:46:03;20.00;;;12.97;;
47539;SDS011;33280;52.152;21.052;2022-10-17T15:48:33;22.83;;;13.40;;
47539;SDS011;33280;52.152;21.052;2022-10-17T15:51:00;20.60;;;12.60;;
47539;SDS011;33280;52.152;21.052;2022-10-17T15:53:39;22.57;;;13.83;;
47539;SDS011;33280;52.152;21.052;2022-10-17T15:56:27;22.70;;;12.77;;
47539;SDS011;33280;52.152;21.052;2022-10-17T15:59:03;19.87;;;12.80;;
47539;SDS011;33280;52.152;21.052;2022-10-17T16:01:54;30.30;;;13.43;;
47539;SDS011;33280;52.152;21.052;2022-10-17T16:06:56;22.00;;;13.70;;
47539;SDS011;33280;52.152;21.052;2022-10-17T16:09:23;19.77;;;13.23;;
47539;SDS011;33280;52.152;21.052;2022-10-17T16:11:50;21.17;;;13.77;;
47539;SDS011;33280;52.152;21.052;2022-10-17T16:14:17;23.83;;;13.73;;
47539;SDS011;33280;52.152;21.052;2022-10-17T16:16:44;27.20;;;14.27;;
47539;SDS011;33280;52.152;21.052;2022-10-17T16:19:11;23.23;;;13.70;;
47539;SDS011;33280;52.152;21.052;2022-10-17T16:21:39;22.57;;;14.03;;
47539;SDS011;33280;52.152;21.052;2022-10-17T16:24:10;24.03;;;14.10;;
47539;SDS011;33280;52.152;21.052;2022-10-17T16:26:38;23.47;;;14.37;;
47539;SDS011;33280;52.152;21.052;2022-10-17T16:29:06;25.97;;;13.63;;
47539;SDS011;33280;52.152;21.052;2022-10-17T16:31:35;24.43;;;14.70;;
47539;SDS011;33280;52.152;21.052;2022-10-17T16:34:05;25.13;;;14.53;;
47539;SDS011;33280;52.152;21.052;2022-10-17T16:36:34;22.87;;;14.27;;
47539;SDS011;33280;52.152;21.052;2022-10-17T16:39:01;26.10;;;15.07;;
47539;SDS011;33280;52.152;21.052;2022-10-17T16:41:29;26.33;;;14.63;;
47539;SDS011;33280;52.152;21.052;2022-10-17T16:44:22;24.00;;;13.80;;
47539;SDS011;33280;52.152;21.052;2022-10-17T16:46:49;23.03;;;14.20;;
47539;SDS011;33280;52.152;21.052;2022-10-17T16:49:16;24.47;;;14.17;;
47539;SDS011;33280;52.152;21.052;2022-10-17T16:51:43;24.43;;;14.30;;
47539;SDS011;33280;52.152;21.052;2022-10-17T16:54:10;26.70;;;14.30;;
47539;SDS011;33280;52.152;21.052;2022-10-17T16:56:37;20.97;;;14.13;;
47539;SDS011;33280;52.152;21.052;2022-10-17T16:59:04;25.30;;;14.30;;
47539;SDS011;33280;52.152;21.052;2022-10-17T17:01:31;24.37;;;14.43;;
47539;SDS011;33280;52.152;21.052;2022-10-17T17:03:58;22.27;;;14.17;;
47539;SDS011;33280;52.152;21.052;2022-10-17T17:06:26;31.50;;;17.20;;
47539;SDS011;33280;52.152;21.052;2022-10-17T17:08:54;24.33;;;14.40;;
47539;SDS011;33280;52.152;21.052;2022-10-17T17:11:22;23.47;;;14.20;;
47539;SDS011;33280;52.152;21.052;2022-10-17T17:13:51;22.10;;;13.90;;
47539;SDS011;33280;52.152;21.052;2022-10-17T17:16:21;24.07;;;14.17;;
47539;SDS011;33280;52.152;21.052;2022-10-17T17:18:53;24.03;;;14.50;;
47539;SDS011;33280;52.152;21.052;2022-10-17T17:21:24;20.67;;;13.97;;
47539;SDS011;33280;52.152;21.052;2022-10-17T17:23:54;24.33;;;15.33;;
47539;SDS011;33280;52.152;21.052;2022-10-17T17:26:31;22.50;;;14.73;;
47539;SDS011;33280;52.152;21.052;2022-10-17T17:29:06;24.73;;;14.97;;
47539;SDS011;33280;52.152;21.052;2022-10-17T17:31:34;25.93;;;15.57;;
47539;SDS011;33280;52.152;21.052;2022-10-17T17:34:09;24.00;;;14.80;;
47539;SDS011;33280;52.152;21.052;2022-10-17T17:36:43;26.30;;;14.83;;
47539;SDS011;33280;52.152;21.052;2022-10-17T17:39:11;28.03;;;14.57;;
47539;SDS011;33280;52.152;21.052;2022-10-17T17:41:40;26.23;;;15.70;;
47539;SDS011;33280;52.152;21.052;2022-10-17T17:44:09;27.80;;;15.50;;
47539;SDS011;33280;52.152;21.052;2022-10-17T17:46:42;25.70;;;14.80;;
47539;SDS011;33280;52.152;21.052;2022-10-17T17:49:12;29.13;;;15.57;;
47539;SDS011;33280;52.152;21.052;2022-10-17T17:51:49;22.83;;;15.03;;
47539;SDS011;33280;52.152;21.052;2022-10-17T17:54:16;23.63;;;15.27;;
47539;SDS011;33280;52.152;21.052;2022-10-17T17:56:49;25.27;;;14.70;;
47539;SDS011;33280;52.152;21.052;2022-10-17T17:59:15;26.03;;;15.37;;
47539;SDS011;33280;52.152;21.052;2022-10-17T18:01:42;25.27;;;15.07;;
47539;SDS011;33280;52.152;21.052;2022-10-17T18:04:09;24.67;;;15.57;;
47539;SDS011;33280;52.152;21.052;2022-10-17T18:06:37;30.00;;;15.93;;
47539;SDS011;33280;52.152;21.052;2022-10-17T18:09:05;26.60;;;15.67;;
47539;SDS011;33280;52.152;21.052;2022-10-17T18:11:33;27.13;;;15.97;;
47539;SDS011;33280;52.152;21.052;2022-10-17T18:14:02;26.33;;;15.67;;
47539;SDS011;33280;52.152;21.052;2022-10-17T18:16:36;24.53;;;15.00;;
47539;SDS011;33280;52.152;21.052;2022-10-17T18:19:15;26.50;;;15.60;;
47539;SDS011;33280;52.152;21.052;2022-10-17T18:21:42;25.43;;;15.47;;
47539;SDS011;33280;52.152;21.052;2022-10-17T18:24:13;24.57;;;15.50;;
47539;SDS011;33280;52.152;21.052;2022-10-17T18:26:40;26.13;;;15.30;;
47539;SDS011;33280;52.152;21.052;2022-10-17T18:29:06;26.67;;;16.37;;
47539;SDS011;33280;52.152;21.052;2022-10-17T18:31:33;27.03;;;15.10;;
47539;SDS011;33280;52.152;21.052;2022-10-17T18:34:14;27.97;;;16.10;;
47539;SDS011;33280;52.152;21.052;2022-10-17T18:36:56;25.67;;;15.93;;
47539;SDS011;33280;52.152;21.052;2022-10-17T18:39:24;28.00;;;15.67;;
47539;SDS011;33280;52.152;21.052;2022-10-17T18:41:51;25.60;;;15.80;;
47539;SDS011;33280;52.152;21.052;2022-10-17T18:44:18;27.43;;;15.30;;
47539;SDS011;33280;52.152;21.052;2022-10-17T18:46:49;23.40;;;15.07;;
47539;SDS011;33280;52.152;21.052;2022-10-17T18:49:25;28.30;;;15.50;;
47539;SDS011;33280;52.152;21.052;2022-10-17T18:51:52;27.83;;;15.43;;
47539;SDS011;33280;52.152;21.052;2022-10-17T18:54:20;26.10;;;15.43;;
47539;SDS011;33280;52.152;21.052;2022-10-17T18:56:52;24.97;;;14.37;;
47539;SDS011;33280;52.152;21.052;2022-10-17T18:59:25;29.40;;;17.40;;
47539;SDS011;33280;52.152;21.052;2022-10-17T19:01:52;25.27;;;15.00;;
47539;SDS011;33280;52.152;21.052;2022-10-17T19:04:19;22.87;;;14.10;;
47539;SDS011;33280;52.152;21.052;2022-10-17T19:06:47;22.97;;;14.53;;
47539;SDS011;33280;52.152;21.052;2022-10-17T19:09:13;25.33;;;15.33;;
47539;SDS011;33280;52.152;21.052;2022-10-17T19:11:42;25.70;;;14.43;;
47539;SDS011;33280;52.152;21.052;2022-10-17T19:14:09;24.07;;;14.47;;
47539;SDS011;33280;52.152;21.052;2022-10-17T19:16:47;22.90;;;14.17;;
47539;SDS011;33280;52.152;21.052;2022-10-17T19:19:32;27.17;;;15.03;;
47539;SDS011;33280;52.152;21.052;2022-10-17T19:21:59;26.27;;;14.67;;